sensor_id;sensor_type;location;lat;lon;timestamp;pressure;altitude;pressure_sealevel;temperature;humidity
66430;BME280;53242;51.694;10.006;2022-10-31T00:01:25;100003.53;;;15.70;67.86
66430;BME280;53242;51.694;10.006;2022-10-31T00:03:48;100006.22;;;15.63;67.95
66430;BME280;53242;51.694;10.006;2022-10-31T00:06:11;100006.28;;;15.56;68.21
66430;BME280;53242;51.694;10.006;2022-10-31T00:08:33;100012.00;;;15.53;68.24
66430;BME280;53242;51.694;10.006;2022-10-31T00:10:56;100008.16;;;15.49;68.50
66430;BME280;53242;51.694;10.006;2022-10-31T00:13:18;100015.72;;;15.52;68.28
66430;BME280;53242;51.694;10.006;2022-10-31T00:15:41;100010.81;;;15.49;68.47
66430;BME280;53242;51.694;10.006;2022-10-31T00:18:04;100014.88;;;15.52;68.35
66430;BME280;53242;51.694;10.006;2022-10-31T00:20:27;100022.69;;;15.46;68.27
66430;BME280;53242;51.694;10.006;2022-10-31T00:22:49;100017.38;;;15.46;68.31
66430;BME280;53242;51.694;10.006;2022-10-31T00:25:12;100019.63;;;15.50;68.33
66430;BME280;53242;51.694;10.006;2022-10-31T00:27:34;100020.88;;;15.47;68.26
66430;BME280;53242;51.694;10.006;2022-10-31T00:29:57;100026.78;;;15.49;68.34
66430;BME280;53242;51.694;10.006;2022-10-31T00:32:19;100027.16;;;15.53;68.37
66430;BME280;53242;51.694;10.006;2022-10-31T00:34:42;100029.22;;;15.51;68.15
66430;BME280;53242;51.694;10.006;2022-10-31T00:37:05;100028.03;;;15.46;68.45
66430;BME280;53242;51.694;10.006;2022-10-31T00:39:27;100030.91;;;15.45;68.66
66430;BME280;53242;51.694;10.006;2022-10-31T00:41:50;100027.78;;;15.48;68.30
66430;BME280;53242;51.694;10.006;2022-10-31T00:44:12;100030.47;;;15.48;68.46
66430;BME280;53242;51.694;10.006;2022-10-31T00:46:35;100032.72;;;15.51;68.31
66430;BME280;53242;51.694;10.006;2022-10-31T00:48:57;100040.06;;;15.49;68.42
66430;BME280;53242;51.694;10.006;2022-10-31T00:51:20;100040.28;;;15.48;68.42
66430;BME280;53242;51.694;10.006;2022-10-31T00:53:43;100034.34;;;15.45;68.69
66430;BME280;53242;51.694;10.006;2022-10-31T00:56:05;100041.31;;;15.46;68.53
66430;BME280;53242;51.694;10.006;2022-10-31T00:58:28;100033.38;;;15.40;68.98
66430;BME280;53242;51.694;10.006;2022-10-31T01:00:51;100035.22;;;15.39;69.07
66430;BME280;53242;51.694;10.006;2022-10-31T01:03:17;100035.25;;;15.33;69.08
66430;BME280;53242;51.694;10.006;2022-10-31T01:05:39;100032.41;;;15.27;69.25
66430;BME280;53242;51.694;10.006;2022-10-31T01:08:01;100034.09;;;15.22;69.47
66430;BME280;53242;51.694;10.006;2022-10-31T01:10:24;100041.19;;;15.35;68.93
66430;BME280;53242;51.694;10.006;2022-10-31T01:12:48;100037.19;;;15.19;69.59
66430;BME280;53242;51.694;10.006;2022-10-31T01:15:13;100049.41;;;15.20;69.75
66430;BME280;53242;51.694;10.006;2022-10-31T01:17:37;100048.84;;;15.18;69.69
66430;BME280;53242;51.694;10.006;2022-10-31T01:20:00;100040.88;;;15.11;69.74
66430;BME280;53242;51.694;10.006;2022-10-31T01:22:23;100050.47;;;15.12;69.70
66430;BME280;53242;51.694;10.006;2022-10-31T01:24:46;100044.34;;;15.11;69.79
66430;BME280;53242;51.694;10.006;2022-10-31T01:27:08;100057.28;;;15.01;69.96
66430;BME280;53242;51.694;10.006;2022-10-31T01:29:31;100053.13;;;15.12;69.92
66430;BME280;53242;51.694;10.006;2022-10-31T01:31:54;100052.16;;;15.06;69.70
66430;BME280;53242;51.694;10.006;2022-10-31T01:34:17;100057.50;;;15.00;69.92
66430;BME280;53242;51.694;10.006;2022-10-31T01:36:40;100060.16;;;15.00;70.17
66430;BME280;53242;51.694;10.006;2022-10-31T01:39:12;100065.03;;;15.03;70.23
66430;BME280;53242;51.694;10.006;2022-10-31T01:41:37;100057.28;;;15.01;70.10
66430;BME280;53242;51.694;10.006;2022-10-31T01:49:17;100059.94;;;15.01;70.38
66430;BME280;53242;51.694;10.006;2022-10-31T01:52:11;100059.69;;;15.09;70.17
66430;BME280;53242;51.694;10.006;2022-10-31T01:54:38;100051.16;;;14.94;70.53
66430;BME280;53242;51.694;10.006;2022-10-31T01:57:02;100057.91;;;14.90;70.53
66430;BME280;53242;51.694;10.006;2022-10-31T01:59:29;100057.91;;;14.90;70.75
66430;BME280;53242;51.694;10.006;2022-10-31T02:01:53;100052.81;;;14.88;70.62
66430;BME280;53242;51.694;10.006;2022-10-31T02:04:17;100049.13;;;14.96;70.48
66430;BME280;53242;51.694;10.006;2022-10-31T02:06:49;100056.91;;;14.91;70.97
66430;BME280;53242;51.694;10.006;2022-10-31T02:09:15;100059.97;;;14.88;70.60
66430;BME280;53242;51.694;10.006;2022-10-31T02:11:38;100060.56;;;14.90;70.77
66430;BME280;53242;51.694;10.006;2022-10-31T02:14:02;100059.97;;;14.88;70.80
66430;BME280;53242;51.694;10.006;2022-10-31T02:16:25;100060.97;;;14.93;70.44
66430;BME280;53242;51.694;10.006;2022-10-31T02:18:48;100064.44;;;14.94;70.58
66430;BME280;53242;51.694;10.006;2022-10-31T02:21:27;100058.53;;;14.92;70.75
66430;BME280;53242;51.694;10.006;2022-10-31T02:24:00;100063.22;;;14.90;70.49
66430;BME280;53242;51.694;10.006;2022-10-31T02:26:45;100067.34;;;14.86;70.96
66430;BME280;53242;51.694;10.006;2022-10-31T02:32:27;100071.84;;;14.78;71.46
66430;BME280;53242;51.694;10.006;2022-10-31T02:37:36;100074.91;;;14.75;71.29
66430;BME280;53242;51.694;10.006;2022-10-31T02:40:16;100078.19;;;14.57;71.88
66430;BME280;53242;51.694;10.006;2022-10-31T02:46:29;100075.34;;;14.52;71.91
66430;BME280;53242;51.694;10.006;2022-10-31T02:48:59;100083.91;;;14.47;72.04
66430;BME280;53242;51.694;10.006;2022-10-31T02:51:23;100090.47;;;14.38;72.31
66430;BME280;53242;51.694;10.006;2022-10-31T02:53:45;100085.34;;;14.43;71.99
66430;BME280;53242;51.694;10.006;2022-10-31T02:56:15;100085.53;;;14.48;71.93
66430;BME280;53242;51.694;10.006;2022-10-31T02:58:53;100081.28;;;14.54;71.72
66430;BME280;53242;51.694;10.006;2022-10-31T03:12:28;100082.09;;;14.28;72.04
66430;BME280;53242;51.694;10.006;2022-10-31T03:17:56;100083.53;;;14.17;72.71
66430;BME280;53242;51.694;10.006;2022-10-31T03:20:26;100083.28;;;13.98;73.00
66430;BME280;53242;51.694;10.006;2022-10-31T03:22:51;100087.19;;;14.09;72.55
66430;BME280;53242;51.694;10.006;2022-10-31T03:25:16;100081.03;;;13.89;73.33
66430;BME280;53242;51.694;10.006;2022-10-31T03:27:42;100086.50;;;13.74;74.47
66430;BME280;53242;51.694;10.006;2022-10-31T03:30:06;100078.59;;;13.87;73.71
66430;BME280;53242;51.694;10.006;2022-10-31T03:32:44;100073.28;;;13.94;73.21
66430;BME280;53242;51.694;10.006;2022-10-31T03:35:09;100086.72;;;13.86;73.35
66430;BME280;53242;51.694;10.006;2022-10-31T03:37:35;100090.44;;;13.85;73.50
66430;BME280;53242;51.694;10.006;2022-10-31T03:39:59;100091.59;;;13.69;73.80
66430;BME280;53242;51.694;10.006;2022-10-31T03:42:25;100082.63;;;13.63;74.47
66430;BME280;53242;51.694;10.006;2022-10-31T03:44:50;100087.13;;;13.69;73.98
66430;BME280;53242;51.694;10.006;2022-10-31T03:47:15;100090.56;;;13.63;74.16
66430;BME280;53242;51.694;10.006;2022-10-31T03:49:38;100089.16;;;13.67;73.29
66430;BME280;53242;51.694;10.006;2022-10-31T03:52:10;100092.22;;;13.64;73.90
66430;BME280;53242;51.694;10.006;2022-10-31T03:59:56;100092.34;;;13.49;74.37
66430;BME280;53242;51.694;10.006;2022-10-31T04:02:25;100091.72;;;13.47;74.45
66430;BME280;53242;51.694;10.006;2022-10-31T04:04:50;100087.47;;;13.46;74.97
66430;BME280;53242;51.694;10.006;2022-10-31T04:07:13;100086.63;;;13.45;74.32
66430;BME280;53242;51.694;10.006;2022-10-31T04:09:38;100089.28;;;13.45;74.42
66430;BME280;53242;51.694;10.006;2022-10-31T04:12:05;100080.41;;;13.31;75.02
66430;BME280;53242;51.694;10.006;2022-10-31T04:14:46;100081.31;;;13.45;74.97
66430;BME280;53242;51.694;10.006;2022-10-31T04:17:13;100086.63;;;13.45;75.22
66430;BME280;53242;51.694;10.006;2022-10-31T04:19:38;100088.50;;;13.52;74.81
66430;BME280;53242;51.694;10.006;2022-10-31T04:22:01;100099.09;;;13.45;74.86
66430;BME280;53242;51.694;10.006;2022-10-31T04:24:23;100104.38;;;13.45;74.95
66430;BME280;53242;51.694;10.006;2022-10-31T04:26:46;100118.16;;;13.27;75.36
66430;BME280;53242;51.694;10.006;2022-10-31T04:29:09;100119.47;;;13.09;75.99
66430;BME280;53242;51.694;10.006;2022-10-31T04:31:31;100117.56;;;12.96;76.57
66430;BME280;53242;51.694;10.006;2022-10-31T04:33:54;100116.84;;;13.16;76.28
66430;BME280;53242;51.694;10.006;2022-10-31T04:36:16;100118.75;;;13.29;75.10
66430;BME280;53242;51.694;10.006;2022-10-31T04:38:38;100114.00;;;13.18;75.03
66430;BME280;53242;51.694;10.006;2022-10-31T04:41:10;100104.59;;;13.15;75.02
66430;BME280;53242;51.694;10.006;2022-10-31T04:43:48;100108.06;;;13.09;75.04
66430;BME280;53242;51.694;10.006;2022-10-31T04:46:10;100111.69;;;13.01;75.17
66430;BME280;53242;51.694;10.006;2022-10-31T04:48:33;100102.88;;;12.94;75.38
66430;BME280;53242;51.694;10.006;2022-10-31T04:51:02;100113.06;;;12.97;75.43
66430;BME280;53242;51.694;10.006;2022-10-31T04:53:25;100104.06;;;12.91;75.63
66430;BME280;53242;51.694;10.006;2022-10-31T04:56:16;100100.19;;;12.87;75.79
66430;BME280;53242;51.694;10.006;2022-10-31T04:58:42;100095.31;;;12.91;75.71
66430;BME280;53242;51.694;10.006;2022-10-31T05:01:06;100096.56;;;12.95;75.68
66430;BME280;53242;51.694;10.006;2022-10-31T05:03:29;100103.06;;;12.92;75.87
66430;BME280;53242;51.694;10.006;2022-10-31T05:05:51;100100.88;;;13.03;76.26
66430;BME280;53242;51.694;10.006;2022-10-31T05:08:14;100101.50;;;13.05;75.98
66430;BME280;53242;51.694;10.006;2022-10-31T05:10:37;100104.00;;;13.13;75.48
66430;BME280;53242;51.694;10.006;2022-10-31T05:13:01;100108.22;;;13.07;75.80
66430;BME280;53242;51.694;10.006;2022-10-31T05:15:30;100113.16;;;13.10;75.46
66430;BME280;53242;51.694;10.006;2022-10-31T05:18:11;100109.66;;;13.03;75.83
66430;BME280;53242;51.694;10.006;2022-10-31T05:20:52;100116.75;;;12.96;76.03
66430;BME280;53242;51.694;10.006;2022-10-31T05:23:21;100107.13;;;12.88;75.97
66430;BME280;53242;51.694;10.006;2022-10-31T05:25:44;100107.91;;;12.82;76.35
66430;BME280;53242;51.694;10.006;2022-10-31T05:28:08;100100.16;;;12.80;76.07
66430;BME280;53242;51.694;10.006;2022-10-31T05:30:31;100108.09;;;12.80;76.32
66430;BME280;53242;51.694;10.006;2022-10-31T05:32:54;100107.91;;;12.82;75.93
66430;BME280;53242;51.694;10.006;2022-10-31T05:35:35;100106.28;;;12.88;75.66
66430;BME280;53242;51.694;10.006;2022-10-31T05:38:24;100112.75;;;12.78;75.75
66430;BME280;53242;51.694;10.006;2022-10-31T05:40:46;100117.63;;;12.75;75.96
66430;BME280;53242;51.694;10.006;2022-10-31T05:43:09;100119.69;;;12.79;75.91
66430;BME280;53242;51.694;10.006;2022-10-31T05:45:31;100119.41;;;12.68;76.61
66430;BME280;53242;51.694;10.006;2022-10-31T05:47:59;100122.88;;;12.68;76.60
66430;BME280;53242;51.694;10.006;2022-10-31T05:50:57;100120.03;;;12.70;76.53
66430;BME280;53242;51.694;10.006;2022-10-31T05:53:21;100122.63;;;12.63;76.89
66430;BME280;53242;51.694;10.006;2022-10-31T05:55:43;100114.13;;;12.68;76.67
66430;BME280;53242;51.694;10.006;2022-10-31T05:58:12;100116.13;;;12.65;76.87
66430;BME280;53242;51.694;10.006;2022-10-31T06:00:38;100122.72;;;12.76;76.26
66430;BME280;53242;51.694;10.006;2022-10-31T06:03:06;100120.03;;;12.70;76.43
66430;BME280;53242;51.694;10.006;2022-10-31T06:05:42;100123.19;;;12.58;76.84
66430;BME280;53242;51.694;10.006;2022-10-31T06:08:05;100123.63;;;12.62;77.10
66430;BME280;53242;51.694;10.006;2022-10-31T06:10:27;100132.22;;;12.64;76.83
66430;BME280;53242;51.694;10.006;2022-10-31T06:12:51;100124.03;;;12.59;77.43
66430;BME280;53242;51.694;10.006;2022-10-31T06:15:26;100123.03;;;12.60;77.56
66430;BME280;53242;51.694;10.006;2022-10-31T06:18:04;100120.38;;;12.60;78.53
66430;BME280;53242;51.694;10.006;2022-10-31T06:20:33;100119.53;;;12.59;77.49
66430;BME280;53242;51.694;10.006;2022-10-31T06:23:00;100111.66;;;12.66;77.29
66430;BME280;53242;51.694;10.006;2022-10-31T06:25:22;100118.59;;;12.67;77.30
66430;BME280;53242;51.694;10.006;2022-10-31T06:27:45;100113.69;;;12.64;77.53
66430;BME280;53242;51.694;10.006;2022-10-31T06:30:10;100115.75;;;12.69;77.73
66430;BME280;53242;51.694;10.006;2022-10-31T06:32:33;100116.94;;;12.66;77.67
66430;BME280;53242;51.694;10.006;2022-10-31T06:34:55;100115.56;;;12.70;76.89
66430;BME280;53242;51.694;10.006;2022-10-31T06:37:19;100119.66;;;12.73;77.34
66430;BME280;53242;51.694;10.006;2022-10-31T06:39:44;100123.34;;;12.78;76.96
66430;BME280;53242;51.694;10.006;2022-10-31T06:42:09;100124.69;;;12.96;76.51
66430;BME280;53242;51.694;10.006;2022-10-31T06:44:31;100127.91;;;12.91;76.14
66430;BME280;53242;51.694;10.006;2022-10-31T06:47:22;100128.94;;;12.90;76.35
66430;BME280;53242;51.694;10.006;2022-10-31T06:49:55;100128.19;;;13.03;75.77
66430;BME280;53242;51.694;10.006;2022-10-31T06:52:19;100132.75;;;12.81;76.63
66430;BME280;53242;51.694;10.006;2022-10-31T06:54:42;100129.69;;;12.84;76.63
66430;BME280;53242;51.694;10.006;2022-10-31T06:57:05;100124.72;;;13.03;76.08
66430;BME280;53242;51.694;10.006;2022-10-31T06:59:27;100127.63;;;13.08;75.65
66430;BME280;53242;51.694;10.006;2022-10-31T07:02:09;100123.13;;;13.08;76.08
66430;BME280;53242;51.694;10.006;2022-10-31T07:04:32;100129.66;;;13.12;75.79
66430;BME280;53242;51.694;10.006;2022-10-31T07:06:55;100139.47;;;13.12;76.14
66430;BME280;53242;51.694;10.006;2022-10-31T07:09:17;100137.25;;;13.15;76.17
66430;BME280;53242;51.694;10.006;2022-10-31T07:11:39;100139.50;;;13.19;75.99
66430;BME280;53242;51.694;10.006;2022-10-31T07:14:02;100147.44;;;13.19;76.16
66430;BME280;53242;51.694;10.006;2022-10-31T07:16:25;100137.59;;;13.06;76.58
66430;BME280;53242;51.694;10.006;2022-10-31T07:18:48;100136.84;;;13.19;76.22
66430;BME280;53242;51.694;10.006;2022-10-31T07:21:10;100142.50;;;13.37;75.63
66430;BME280;53242;51.694;10.006;2022-10-31T07:23:33;100137.72;;;13.26;76.14
66430;BME280;53242;51.694;10.006;2022-10-31T07:26:15;100134.56;;;13.44;75.68
66430;BME280;53242;51.694;10.006;2022-10-31T07:28:41;100140.09;;;13.49;75.96
66430;BME280;53242;51.694;10.006;2022-10-31T07:31:04;100144.00;;;13.60;75.68
66430;BME280;53242;51.694;10.006;2022-10-31T07:33:27;100145.03;;;13.59;75.52
66430;BME280;53242;51.694;10.006;2022-10-31T07:36:25;100151.31;;;13.51;75.81
66430;BME280;53242;51.694;10.006;2022-10-31T07:38:49;100140.75;;;13.58;75.79
66430;BME280;53242;51.694;10.006;2022-10-31T07:41:12;100146.91;;;13.72;75.22
66430;BME280;53242;51.694;10.006;2022-10-31T07:43:38;100143.66;;;13.83;74.81
66430;BME280;53242;51.694;10.006;2022-10-31T07:46:12;100147.53;;;13.80;74.87
66430;BME280;53242;51.694;10.006;2022-10-31T07:48:54;100146.28;;;13.70;75.93
66430;BME280;53242;51.694;10.006;2022-10-31T07:51:34;100148.72;;;13.71;75.82
66430;BME280;53242;51.694;10.006;2022-10-31T07:54:15;100151.91;;;13.46;76.55
66430;BME280;53242;51.694;10.006;2022-10-31T07:56:38;100146.25;;;13.56;76.29
66430;BME280;53242;51.694;10.006;2022-10-31T07:59:02;100145.41;;;13.56;76.25
66430;BME280;53242;51.694;10.006;2022-10-31T08:01:25;100146.59;;;13.46;76.67
66430;BME280;53242;51.694;10.006;2022-10-31T08:04:07;100157.56;;;13.37;77.06
66430;BME280;53242;51.694;10.006;2022-10-31T08:06:48;100147.59;;;13.39;76.89
66430;BME280;53242;51.694;10.006;2022-10-31T08:09:25;100145.84;;;13.59;76.52
66430;BME280;53242;51.694;10.006;2022-10-31T08:11:48;100159.66;;;13.48;76.55
66430;BME280;53242;51.694;10.006;2022-10-31T08:14:12;100153.81;;;13.66;75.74
66430;BME280;53242;51.694;10.006;2022-10-31T08:16:34;100155.19;;;13.48;76.16
66430;BME280;53242;51.694;10.006;2022-10-31T08:18:59;100161.03;;;13.37;76.74
66430;BME280;53242;51.694;10.006;2022-10-31T08:21:24;100167.38;;;13.43;76.68
66430;BME280;53242;51.694;10.006;2022-10-31T08:23:46;100159.28;;;13.51;76.19
66430;BME280;53242;51.694;10.006;2022-10-31T08:26:10;100162.50;;;13.46;76.38
66430;BME280;53242;51.694;10.006;2022-10-31T08:28:33;100154.56;;;13.46;76.38
66430;BME280;53242;51.694;10.006;2022-10-31T08:30:57;100160.91;;;13.52;76.33
66430;BME280;53242;51.694;10.006;2022-10-31T08:33:35;100161.16;;;13.64;76.03
66430;BME280;53242;51.694;10.006;2022-10-31T08:36:12;100157.50;;;13.30;77.50
66430;BME280;53242;51.694;10.006;2022-10-31T08:38:44;100150.97;;;13.68;76.28
66430;BME280;53242;51.694;10.006;2022-10-31T08:41:09;100150.13;;;13.60;76.26
66430;BME280;53242;51.694;10.006;2022-10-31T08:43:31;100155.91;;;13.77;75.96
66430;BME280;53242;51.694;10.006;2022-10-31T08:45:53;100152.81;;;13.74;76.13
66430;BME280;53242;51.694;10.006;2022-10-31T08:48:22;100142.50;;;13.92;75.61
66430;BME280;53242;51.694;10.006;2022-10-31T08:50:45;100142.50;;;13.92;75.67
66430;BME280;53242;51.694;10.006;2022-10-31T08:53:18;100151.22;;;13.79;76.17
66430;BME280;53242;51.694;10.006;2022-10-31T08:55:47;100154.34;;;14.03;75.53
66430;BME280;53242;51.694;10.006;2022-10-31T08:58:21;100154.88;;;13.72;76.84
66430;BME280;53242;51.694;10.006;2022-10-31T09:00:50;100148.00;;;13.97;76.01
66430;BME280;53242;51.694;10.006;2022-10-31T09:03:23;100145.16;;;14.12;75.49
66430;BME280;53242;51.694;10.006;2022-10-31T09:05:46;100137.41;;;14.18;75.14
66430;BME280;53242;51.694;10.006;2022-10-31T09:08:09;100141.31;;;14.28;75.04
66430;BME280;53242;51.694;10.006;2022-10-31T09:10:34;100127.63;;;14.45;74.31
66430;BME280;53242;51.694;10.006;2022-10-31T09:13:20;100126.63;;;14.59;73.83
66430;BME280;53242;51.694;10.006;2022-10-31T09:16:05;100131.31;;;14.37;74.70
66430;BME280;53242;51.694;10.006;2022-10-31T09:18:28;100137.44;;;14.38;75.03
66430;BME280;53242;51.694;10.006;2022-10-31T09:20:53;100129.25;;;14.53;74.52
66430;BME280;53242;51.694;10.006;2022-10-31T09:23:18;100122.31;;;14.58;74.08
66430;BME280;53242;51.694;10.006;2022-10-31T09:25:41;100118.25;;;14.56;74.26
66430;BME280;53242;51.694;10.006;2022-10-31T09:28:23;100124.75;;;14.93;72.96
66430;BME280;53242;51.694;10.006;2022-10-31T09:30:47;100121.66;;;15.10;72.64
66430;BME280;53242;51.694;10.006;2022-10-31T09:33:15;100129.19;;;15.20;72.44
66430;BME280;53242;51.694;10.006;2022-10-31T09:35:43;100123.69;;;15.21;72.62
66430;BME280;53242;51.694;10.006;2022-10-31T09:38:09;100118.94;;;15.23;72.57
66430;BME280;53242;51.694;10.006;2022-10-31T09:40:41;100113.59;;;15.30;71.73
66430;BME280;53242;51.694;10.006;2022-10-31T09:51:37;100107.34;;;15.63;71.18
66430;BME280;53242;51.694;10.006;2022-10-31T09:54:21;100106.34;;;15.51;71.99
66430;BME280;53242;51.694;10.006;2022-10-31T09:56:47;100104.09;;;15.54;71.72
66430;BME280;53242;51.694;10.006;2022-10-31T09:59:24;100104.69;;;15.63;71.57
66430;BME280;53242;51.694;10.006;2022-10-31T10:01:57;100113.19;;;15.78;71.49
66430;BME280;53242;51.694;10.006;2022-10-31T10:04:39;100101.34;;;15.74;71.22
66430;BME280;53242;51.694;10.006;2022-10-31T10:13:53;100106.09;;;15.66;71.14
66430;BME280;53242;51.694;10.006;2022-10-31T10:16:39;100096.78;;;15.88;71.09
66430;BME280;53242;51.694;10.006;2022-10-31T10:19:28;100097.81;;;15.87;71.24
66430;BME280;53242;51.694;10.006;2022-10-31T10:24:51;100095.97;;;15.88;70.77
66430;BME280;53242;51.694;10.006;2022-10-31T10:27:30;100098.34;;;16.03;70.67
66430;BME280;53242;51.694;10.006;2022-10-31T10:30:12;100082.06;;;16.18;70.42
66430;BME280;53242;51.694;10.006;2022-10-31T10:32:46;100090.47;;;16.15;70.15
66430;BME280;53242;51.694;10.006;2022-10-31T10:35:14;100093.44;;;16.25;70.13
66430;BME280;53242;51.694;10.006;2022-10-31T10:37:40;100086.94;;;16.21;69.88
66430;BME280;53242;51.694;10.006;2022-10-31T10:40:16;100079.28;;;16.31;69.47
66430;BME280;53242;51.694;10.006;2022-10-31T10:42:39;100076.72;;;16.43;69.48
66430;BME280;53242;51.694;10.006;2022-10-31T10:45:20;100065.03;;;16.44;69.37
66430;BME280;53242;51.694;10.006;2022-10-31T10:50:48;100059.31;;;16.40;69.57
66430;BME280;53242;51.694;10.006;2022-10-31T10:53:27;100066.44;;;16.47;69.26
66430;BME280;53242;51.694;10.006;2022-10-31T10:56:17;100055.53;;;16.73;68.56
66430;BME280;53242;51.694;10.006;2022-10-31T10:58:42;100044.56;;;16.63;69.06
66430;BME280;53242;51.694;10.006;2022-10-31T11:01:10;100054.09;;;16.71;69.08
66430;BME280;53242;51.694;10.006;2022-10-31T11:03:35;100043.88;;;16.68;69.17
66430;BME280;53242;51.694;10.006;2022-10-31T11:05:57;100045.31;;;16.89;68.78
66430;BME280;53242;51.694;10.006;2022-10-31T11:08:28;100044.25;;;16.71;69.39
66430;BME280;53242;51.694;10.006;2022-10-31T11:11:17;100035.25;;;16.91;68.31
66430;BME280;53242;51.694;10.006;2022-10-31T11:13:41;100035.91;;;17.05;68.36
66430;BME280;53242;51.694;10.006;2022-10-31T11:16:08;100030.88;;;16.97;68.63
66430;BME280;53242;51.694;10.006;2022-10-31T11:18:34;100029.72;;;17.23;68.07
66430;BME280;53242;51.694;10.006;2022-10-31T11:21:01;100024.16;;;17.24;68.52
66430;BME280;53242;51.694;10.006;2022-10-31T11:23:27;100021.44;;;17.31;68.81
66430;BME280;53242;51.694;10.006;2022-10-31T11:25:55;100025.28;;;17.35;68.43
66430;BME280;53242;51.694;10.006;2022-10-31T11:28:18;100017.63;;;17.39;68.76
66430;BME280;53242;51.694;10.006;2022-10-31T11:31:11;100025.53;;;17.46;68.42
66430;BME280;53242;51.694;10.006;2022-10-31T11:33:34;100021.97;;;17.52;68.73
66430;BME280;53242;51.694;10.006;2022-10-31T11:35:58;100026.97;;;17.60;68.56
66430;BME280;53242;51.694;10.006;2022-10-31T11:38:23;100022.69;;;17.71;67.93
66430;BME280;53242;51.694;10.006;2022-10-31T11:41:13;100008.69;;;17.75;68.41
66430;BME280;53242;51.694;10.006;2022-10-31T11:43:37;100012.25;;;17.69;68.64
66430;BME280;53242;51.694;10.006;2022-10-31T11:46:09;100007.75;;;17.82;68.14
66430;BME280;53242;51.694;10.006;2022-10-31T11:48:32;100000.31;;;17.84;67.87
66430;BME280;53242;51.694;10.006;2022-10-31T11:50:56;99995.38;;;17.99;67.54
66430;BME280;53242;51.694;10.006;2022-10-31T11:53:35;99995.38;;;17.99;66.78
66430;BME280;53242;51.694;10.006;2022-10-31T11:56:14;99989.72;;;17.96;67.31
66430;BME280;53242;51.694;10.006;2022-10-31T11:58:37;100000.13;;;17.85;67.45
66430;BME280;53242;51.694;10.006;2022-10-31T12:00:59;99986.44;;;17.94;67.47
66430;BME280;53242;51.694;10.006;2022-10-31T12:05:46;99978.78;;;18.09;66.66
66430;BME280;53242;51.694;10.006;2022-10-31T12:08:11;99975.66;;;18.24;66.68
66430;BME280;53242;51.694;10.006;2022-10-31T12:10:55;99975.31;;;18.20;66.28
66430;BME280;53242;51.694;10.006;2022-10-31T12:22:08;99951.34;;;18.61;65.58
66430;BME280;53242;51.694;10.006;2022-10-31T12:24:45;99959.56;;;18.71;65.09
66430;BME280;53242;51.694;10.006;2022-10-31T12:27:26;99952.94;;;18.62;64.97
66430;BME280;53242;51.694;10.006;2022-10-31T12:32:34;99949.56;;;18.67;64.62
66430;BME280;53242;51.694;10.006;2022-10-31T12:35:17;99947.47;;;18.57;64.93
66430;BME280;53242;51.694;10.006;2022-10-31T12:37:57;99939.66;;;18.67;65.48
66430;BME280;53242;51.694;10.006;2022-10-31T12:40:37;99936.09;;;18.62;65.12
66430;BME280;53242;51.694;10.006;2022-10-31T12:43:34;99932.38;;;18.63;65.00
66430;BME280;53242;51.694;10.006;2022-10-31T12:45:58;99933.16;;;18.63;65.53
66430;BME280;53242;51.694;10.006;2022-10-31T12:56:23;99912.63;;;18.52;66.00
66430;BME280;53242;51.694;10.006;2022-10-31T12:58:58;99912.41;;;18.41;66.70
66430;BME280;53242;51.694;10.006;2022-10-31T13:01:34;99909.69;;;18.65;66.31
66430;BME280;53242;51.694;10.006;2022-10-31T13:04:12;99902.53;;;18.54;66.54
66430;BME280;53242;51.694;10.006;2022-10-31T13:06:42;99904.84;;;18.50;66.99
66430;BME280;53242;51.694;10.006;2022-10-31T13:09:10;99901.19;;;18.39;67.28
66430;BME280;53242;51.694;10.006;2022-10-31T13:11:42;99898.00;;;18.43;66.76
66430;BME280;53242;51.694;10.006;2022-10-31T13:14:24;99884.47;;;18.20;65.84
66430;BME280;53242;51.694;10.006;2022-10-31T13:16:48;99883.19;;;18.23;66.69
66430;BME280;53242;51.694;10.006;2022-10-31T13:19:18;99880.88;;;18.15;66.06
66430;BME280;53242;51.694;10.006;2022-10-31T13:22:30;99876.47;;;18.20;66.21
66430;BME280;53242;51.694;10.006;2022-10-31T13:24:36;99862.75;;;18.17;65.48
66430;BME280;53242;51.694;10.006;2022-10-31T13:27:09;99865.09;;;18.13;66.07
66430;BME280;53242;51.694;10.006;2022-10-31T13:29:37;99861.63;;;18.01;65.88
66430;BME280;53242;51.694;10.006;2022-10-31T13:32:05;99860.78;;;18.12;65.88
66430;BME280;53242;51.694;10.006;2022-10-31T13:34:37;99854.44;;;18.01;66.31
66430;BME280;53242;51.694;10.006;2022-10-31T13:37:05;99846.31;;;17.96;66.48
66430;BME280;53242;51.694;10.006;2022-10-31T13:39:40;99849.41;;;17.81;66.60
66430;BME280;53242;51.694;10.006;2022-10-31T13:42:33;99848.72;;;17.86;66.74
66430;BME280;53242;51.694;10.006;2022-10-31T13:45:20;99838.19;;;17.79;66.67
66430;BME280;53242;51.694;10.006;2022-10-31T13:47:43;99835.63;;;17.72;67.20
66430;BME280;53242;51.694;10.006;2022-10-31T13:50:22;99830.88;;;17.63;67.47
66430;BME280;53242;51.694;10.006;2022-10-31T13:52:45;99825.78;;;17.61;67.75
66430;BME280;53242;51.694;10.006;2022-10-31T13:55:39;99827.41;;;17.62;67.75
66430;BME280;53242;51.694;10.006;2022-10-31T13:58:23;99830.41;;;17.54;68.17
66430;BME280;53242;51.694;10.006;2022-10-31T14:03:25;99828.44;;;17.49;68.75
66430;BME280;53242;51.694;10.006;2022-10-31T14:05:54;99822.41;;;17.54;68.52
66430;BME280;53242;51.694;10.006;2022-10-31T14:08:20;99818.94;;;17.53;68.60